sensor_id;sensor_type;location;lat;lon;timestamp;P1;durP1;ratioP1;P2;durP2;ratioP2
34836;SDS011;21053;50.848;4.652;2023-03-24T00:01:24;8.93;;;2.60;;
34836;SDS011;21053;50.848;4.652;2023-03-24T00:03:51;6.57;;;2.72;;
34836;SDS011;21053;50.848;4.652;2023-03-24T00:06:19;8.52;;;2.50;;
34836;SDS011;21053;50.848;4.652;2023-03-24T00:08:49;6.40;;;2.55;;
34836;SDS011;21053;50.848;4.652;2023-03-24T00:11:21;10.13;;;3.35;;
34836;SDS011;21053;50.848;4.652;2023-03-24T00:13:47;4.07;;;2.35;;
34836;SDS011;21053;50.848;4.652;2023-03-24T00:18:44;6.05;;;2.67;;
34836;SDS011;21053;50.848;4.652;2023-03-24T00:21:14;7.28;;;2.80;;
34836;SDS011;21053;50.848;4.652;2023-03-24T00:23:41;6.35;;;2.63;;
34836;SDS011;21053;50.848;4.652;2023-03-24T00:26:11;4.53;;;2.47;;
34836;SDS011;21053;50.848;4.652;2023-03-24T00:28:46;7.40;;;2.45;;
34836;SDS011;21053;50.848;4.652;2023-03-24T00:31:16;4.50;;;2.45;;
34836;SDS011;21053;50.848;4.652;2023-03-24T00:33:49;7.40;;;2.65;;
34836;SDS011;21053;50.848;4.652;2023-03-24T00:36:18;6.00;;;2.55;;
34836;SDS011;21053;50.848;4.652;2023-03-24T00:38:49;4.55;;;2.58;;
34836;SDS011;21053;50.848;4.652;2023-03-24T00:41:21;7.35;;;2.17;;
34836;SDS011;21053;50.848;4.652;2023-03-24T00:46:22;5.43;;;2.78;;
34836;SDS011;21053;50.848;4.652;2023-03-24T00:48:57;6.68;;;2.60;;
34836;SDS011;21053;50.848;4.652;2023-03-24T00:53:59;6.25;;;2.40;;
34836;SDS011;21053;50.848;4.652;2023-03-24T00:56:30;6.53;;;2.67;;
34836;SDS011;21053;50.848;4.652;2023-03-24T01:01:27;6.53;;;2.78;;
34836;SDS011;21053;50.848;4.652;2023-03-24T01:06:26;3.72;;;2.58;;
34836;SDS011;21053;50.848;4.652;2023-03-24T01:08:58;6.38;;;2.80;;
34836;SDS011;21053;50.848;4.652;2023-03-24T01:11:27;8.82;;;2.83;;
34836;SDS011;21053;50.848;4.652;2023-03-24T01:16:30;4.97;;;2.47;;
34836;SDS011;21053;50.848;4.652;2023-03-24T01:18:58;11.27;;;3.00;;
34836;SDS011;21053;50.848;4.652;2023-03-24T01:21:25;6.75;;;2.85;;
34836;SDS011;21053;50.848;4.652;2023-03-24T01:23:54;6.25;;;2.75;;
34836;SDS011;21053;50.848;4.652;2023-03-24T01:26:22;7.78;;;3.20;;
34836;SDS011;21053;50.848;4.652;2023-03-24T01:28:51;6.85;;;2.50;;
34836;SDS011;21053;50.848;4.652;2023-03-24T01:33:49;5.55;;;2.70;;
34836;SDS011;21053;50.848;4.652;2023-03-24T01:36:14;5.90;;;3.20;;
34836;SDS011;21053;50.848;4.652;2023-03-24T01:38:43;6.53;;;2.90;;
34836;SDS011;21053;50.848;4.652;2023-03-24T01:43:41;10.98;;;3.08;;
34836;SDS011;21053;50.848;4.652;2023-03-24T01:49:05;3.80;;;2.28;;
34836;SDS011;21053;50.848;4.652;2023-03-24T01:51:42;4.50;;;2.45;;
34836;SDS011;21053;50.848;4.652;2023-03-24T01:57:08;3.53;;;2.75;;
34836;SDS011;21053;50.848;4.652;2023-03-24T02:02:11;5.00;;;2.65;;
34836;SDS011;21053;50.848;4.652;2023-03-24T02:04:45;4.00;;;2.35;;
34836;SDS011;21053;50.848;4.652;2023-03-24T02:07:17;5.57;;;2.60;;
34836;SDS011;21053;50.848;4.652;2023-03-24T02:09:57;9.40;;;2.50;;
34836;SDS011;21053;50.848;4.652;2023-03-24T02:12:32;6.20;;;2.67;;
34836;SDS011;21053;50.848;4.652;2023-03-24T02:15:00;6.68;;;2.60;;
34836;SDS011;21053;50.848;4.652;2023-03-24T02:17:32;5.25;;;2.75;;
34836;SDS011;21053;50.848;4.652;2023-03-24T02:23:23;7.15;;;2.80;;
34836;SDS011;21053;50.848;4.652;2023-03-24T02:34:35;4.43;;;2.70;;
34836;SDS011;21053;50.848;4.652;2023-03-24T02:45:48;4.60;;;1.73;;
34836;SDS011;21053;50.848;4.652;2023-03-24T02:48:36;4.18;;;1.63;;
34836;SDS011;21053;50.848;4.652;2023-03-24T02:51:19;3.58;;;1.15;;
34836;SDS011;21053;50.848;4.652;2023-03-24T02:56:59;6.50;;;1.30;;
34836;SDS011;21053;50.848;4.652;2023-03-24T03:02:20;9.23;;;1.63;;
34836;SDS011;21053;50.848;4.652;2023-03-24T03:05:02;3.90;;;1.20;;
34836;SDS011;21053;50.848;4.652;2023-03-24T03:07:35;5.03;;;1.30;;
34836;SDS011;21053;50.848;4.652;2023-03-24T03:10:18;3.65;;;1.23;;
34836;SDS011;21053;50.848;4.652;2023-03-24T03:12:50;2.92;;;1.50;;
34836;SDS011;21053;50.848;4.652;2023-03-24T03:15:22;5.80;;;1.58;;
34836;SDS011;21053;50.848;4.652;2023-03-24T03:18:05;6.55;;;1.90;;
34836;SDS011;21053;50.848;4.652;2023-03-24T03:20:42;9.60;;;1.25;;
34836;SDS011;21053;50.848;4.652;2023-03-24T03:25:47;7.22;;;1.50;;
34836;SDS011;21053;50.848;4.652;2023-03-24T03:28:21;5.07;;;1.55;;
34836;SDS011;21053;50.848;4.652;2023-03-24T03:30:58;5.97;;;1.50;;
34836;SDS011;21053;50.848;4.652;2023-03-24T03:33:30;6.03;;;1.52;;
34836;SDS011;21053;50.848;4.652;2023-03-24T03:36:31;5.85;;;1.40;;
34836;SDS011;21053;50.848;4.652;2023-03-24T03:41:35;4.80;;;1.30;;
34836;SDS011;21053;50.848;4.652;2023-03-24T03:44:02;8.27;;;1.33;;
34836;SDS011;21053;50.848;4.652;2023-03-24T03:46:28;6.82;;;1.52;;
34836;SDS011;21053;50.848;4.652;2023-03-24T03:48:54;10.10;;;1.90;;
34836;SDS011;21053;50.848;4.652;2023-03-24T03:53:58;8.43;;;1.75;;
34836;SDS011;21053;50.848;4.652;2023-03-24T03:56:29;6.57;;;1.67;;
34836;SDS011;21053;50.848;4.652;2023-03-24T03:58:58;9.32;;;1.65;;
34836;SDS011;21053;50.848;4.652;2023-03-24T04:01:25;10.13;;;2.13;;
34836;SDS011;21053;50.848;4.652;2023-03-24T04:04:03;14.07;;;1.80;;
34836;SDS011;21053;50.848;4.652;2023-03-24T04:06:39;12.35;;;1.98;;
34836;SDS011;21053;50.848;4.652;2023-03-24T04:12:15;10.60;;;2.20;;
34836;SDS011;21053;50.848;4.652;2023-03-24T04:21:03;9.90;;;1.80;;
34836;SDS011;21053;50.848;4.652;2023-03-24T04:26:33;9.15;;;1.98;;
34836;SDS011;21053;50.848;4.652;2023-03-24T04:29:15;12.50;;;2.30;;
34836;SDS011;21053;50.848;4.652;2023-03-24T04:32:03;12.45;;;3.20;;
34836;SDS011;21053;50.848;4.652;2023-03-24T04:34:43;13.93;;;2.33;;
34836;SDS011;21053;50.848;4.652;2023-03-24T04:37:22;16.48;;;3.20;;
34836;SDS011;21053;50.848;4.652;2023-03-24T04:45:06;19.77;;;3.38;;
34836;SDS011;21053;50.848;4.652;2023-03-24T04:47:38;21.08;;;3.63;;
34836;SDS011;21053;50.848;4.652;2023-03-24T04:53:08;16.63;;;3.30;;
34836;SDS011;21053;50.848;4.652;2023-03-24T04:58:37;21.25;;;3.20;;
34836;SDS011;21053;50.848;4.652;2023-03-24T05:01:03;23.70;;;4.00;;
34836;SDS011;21053;50.848;4.652;2023-03-24T05:03:36;14.15;;;3.60;;
34836;SDS011;21053;50.848;4.652;2023-03-24T05:06:02;20.33;;;4.18;;
34836;SDS011;21053;50.848;4.652;2023-03-24T05:11:01;13.07;;;3.50;;
34836;SDS011;21053;50.848;4.652;2023-03-24T05:13:30;22.33;;;3.75;;
34836;SDS011;21053;50.848;4.652;2023-03-24T05:18:28;13.13;;;3.58;;
34836;SDS011;21053;50.848;4.652;2023-03-24T05:20:57;21.63;;;3.28;;
34836;SDS011;21053;50.848;4.652;2023-03-24T05:23:26;14.32;;;2.80;;
34836;SDS011;21053;50.848;4.652;2023-03-24T05:25:54;31.67;;;3.28;;
34836;SDS011;21053;50.848;4.652;2023-03-24T05:28:23;23.90;;;3.95;;
34836;SDS011;21053;50.848;4.652;2023-03-24T05:30:51;9.90;;;2.70;;
34836;SDS011;21053;50.848;4.652;2023-03-24T05:33:17;20.15;;;2.95;;
34836;SDS011;21053;50.848;4.652;2023-03-24T05:35:46;15.35;;;2.85;;
34836;SDS011;21053;50.848;4.652;2023-03-24T05:38:15;23.83;;;3.40;;
34836;SDS011;21053;50.848;4.652;2023-03-24T05:40:43;20.15;;;2.80;;
34836;SDS011;21053;50.848;4.652;2023-03-24T05:43:11;16.90;;;2.90;;
34836;SDS011;21053;50.848;4.652;2023-03-24T05:45:40;11.63;;;3.10;;
34836;SDS011;21053;50.848;4.652;2023-03-24T05:48:08;20.65;;;2.83;;
34836;SDS011;21053;50.848;4.652;2023-03-24T05:50:33;15.32;;;2.92;;
34836;SDS011;21053;50.848;4.652;2023-03-24T05:53:00;17.23;;;2.70;;
34836;SDS011;21053;50.848;4.652;2023-03-24T05:55:27;22.95;;;2.75;;
34836;SDS011;21053;50.848;4.652;2023-03-24T05:58:00;19.85;;;3.00;;
34836;SDS011;21053;50.848;4.652;2023-03-24T06:00:27;25.65;;;3.22;;
34836;SDS011;21053;50.848;4.652;2023-03-24T06:02:58;11.23;;;2.40;;
34836;SDS011;21053;50.848;4.652;2023-03-24T06:05:27;21.50;;;3.17;;
34836;SDS011;21053;50.848;4.652;2023-03-24T06:07:53;20.45;;;2.55;;
34836;SDS011;21053;50.848;4.652;2023-03-24T06:12:52;19.00;;;2.85;;
34836;SDS011;21053;50.848;4.652;2023-03-24T06:17:53;18.80;;;2.67;;
34836;SDS011;21053;50.848;4.652;2023-03-24T06:20:19;19.38;;;2.40;;
34836;SDS011;21053;50.848;4.652;2023-03-24T06:27:47;12.55;;;2.65;;
34836;SDS011;21053;50.848;4.652;2023-03-24T06:30:14;16.38;;;3.08;;
34836;SDS011;21053;50.848;4.652;2023-03-24T06:32:41;12.50;;;2.40;;
34836;SDS011;21053;50.848;4.652;2023-03-24T06:37:42;16.98;;;2.97;;
34836;SDS011;21053;50.848;4.652;2023-03-24T06:42:40;25.75;;;3.22;;
34836;SDS011;21053;50.848;4.652;2023-03-24T06:45:07;16.42;;;2.47;;
34836;SDS011;21053;50.848;4.652;2023-03-24T06:47:33;18.95;;;2.65;;
34836;SDS011;21053;50.848;4.652;2023-03-24T06:49:59;16.45;;;2.67;;
34836;SDS011;21053;50.848;4.652;2023-03-24T06:52:26;17.77;;;2.58;;
34836;SDS011;21053;50.848;4.652;2023-03-24T06:54:53;20.67;;;3.00;;
34836;SDS011;21053;50.848;4.652;2023-03-24T06:59:51;25.25;;;3.42;;
34836;SDS011;21053;50.848;4.652;2023-03-24T07:02:18;17.05;;;2.60;;
34836;SDS011;21053;50.848;4.652;2023-03-24T07:04:45;18.48;;;3.08;;
34836;SDS011;21053;50.848;4.652;2023-03-24T07:07:13;17.10;;;2.83;;
34836;SDS011;21053;50.848;4.652;2023-03-24T07:09:42;16.48;;;2.90;;
34836;SDS011;21053;50.848;4.652;2023-03-24T07:12:08;18.17;;;2.65;;
34836;SDS011;21053;50.848;4.652;2023-03-24T07:14:37;18.75;;;3.38;;
34836;SDS011;21053;50.848;4.652;2023-03-24T07:19:35;16.15;;;2.53;;
34836;SDS011;21053;50.848;4.652;2023-03-24T07:22:02;19.02;;;2.95;;
34836;SDS011;21053;50.848;4.652;2023-03-24T07:24:28;12.35;;;2.33;;
34836;SDS011;21053;50.848;4.652;2023-03-24T07:26:57;18.45;;;2.95;;
34836;SDS011;21053;50.848;4.652;2023-03-24T07:29:24;18.13;;;2.90;;
34836;SDS011;21053;50.848;4.652;2023-03-24T07:31:50;14.02;;;2.65;;
34836;SDS011;21053;50.848;4.652;2023-03-24T07:34:17;21.88;;;3.15;;
34836;SDS011;21053;50.848;4.652;2023-03-24T07:36:44;19.25;;;2.40;;
34836;SDS011;21053;50.848;4.652;2023-03-24T07:41:40;25.08;;;2.58;;
34836;SDS011;21053;50.848;4.652;2023-03-24T07:44:10;11.70;;;2.70;;
34836;SDS011;21053;50.848;4.652;2023-03-24T07:46:39;20.05;;;2.40;;
34836;SDS011;21053;50.848;4.652;2023-03-24T07:51:33;23.45;;;2.47;;
34836;SDS011;21053;50.848;4.652;2023-03-24T07:53:59;22.48;;;2.92;;
34836;SDS011;21053;50.848;4.652;2023-03-24T07:58:55;11.00;;;2.53;;
34836;SDS011;21053;50.848;4.652;2023-03-24T08:01:21;16.42;;;2.58;;
34836;SDS011;21053;50.848;4.652;2023-03-24T08:03:50;19.38;;;2.63;;
34836;SDS011;21053;50.848;4.652;2023-03-24T08:06:20;19.50;;;2.70;;
34836;SDS011;21053;50.848;4.652;2023-03-24T08:08:49;12.73;;;2.70;;
34836;SDS011;21053;50.848;4.652;2023-03-24T08:13:44;16.00;;;2.40;;
34836;SDS011;21053;50.848;4.652;2023-03-24T08:16:11;13.70;;;2.28;;
34836;SDS011;21053;50.848;4.652;2023-03-24T08:18:39;11.85;;;2.90;;
34836;SDS011;21053;50.848;4.652;2023-03-24T08:21:06;18.42;;;2.65;;
34836;SDS011;21053;50.848;4.652;2023-03-24T08:23:35;20.58;;;2.58;;
34836;SDS011;21053;50.848;4.652;2023-03-24T08:26:01;19.75;;;2.40;;
34836;SDS011;21053;50.848;4.652;2023-03-24T08:28:29;12.70;;;2.75;;
34836;SDS011;21053;50.848;4.652;2023-03-24T08:30:55;18.83;;;2.65;;
34836;SDS011;21053;50.848;4.652;2023-03-24T08:33:23;15.95;;;2.40;;
34836;SDS011;21053;50.848;4.652;2023-03-24T08:35:50;16.00;;;2.90;;
34836;SDS011;21053;50.848;4.652;2023-03-24T08:40:56;15.57;;;2.55;;
34836;SDS011;21053;50.848;4.652;2023-03-24T08:45:57;21.02;;;2.35;;
34836;SDS011;21053;50.848;4.652;2023-03-24T08:48:28;21.83;;;2.90;;
34836;SDS011;21053;50.848;4.652;2023-03-24T08:50:56;16.23;;;2.88;;
34836;SDS011;21053;50.848;4.652;2023-03-24T08:55:52;11.25;;;2.10;;
34836;SDS011;21053;50.848;4.652;2023-03-24T08:58:20;14.90;;;2.35;;
34836;SDS011;21053;50.848;4.652;2023-03-24T09:00:47;22.77;;;2.97;;
34836;SDS011;21053;50.848;4.652;2023-03-24T09:03:16;15.95;;;2.38;;
34836;SDS011;21053;50.848;4.652;2023-03-24T09:05:48;19.60;;;2.47;;
34836;SDS011;21053;50.848;4.652;2023-03-24T09:08:15;18.73;;;2.60;;
34836;SDS011;21053;50.848;4.652;2023-03-24T09:10:45;16.73;;;2.50;;
34836;SDS011;21053;50.848;4.652;2023-03-24T09:15:44;22.30;;;2.40;;
34836;SDS011;21053;50.848;4.652;2023-03-24T09:18:12;19.17;;;2.70;;
34836;SDS011;21053;50.848;4.652;2023-03-24T09:20:40;15.52;;;2.05;;
34836;SDS011;21053;50.848;4.652;2023-03-24T09:28:04;11.48;;;2.33;;
34836;SDS011;21053;50.848;4.652;2023-03-24T09:30:32;14.00;;;2.22;;
34836;SDS011;21053;50.848;4.652;2023-03-24T09:32:58;9.85;;;2.33;;
34836;SDS011;21053;50.848;4.652;2023-03-24T09:35:27;19.00;;;2.50;;
34836;SDS011;21053;50.848;4.652;2023-03-24T09:37:53;13.77;;;2.70;;
34836;SDS011;21053;50.848;4.652;2023-03-24T09:40:24;12.65;;;2.25;;
34836;SDS011;21053;50.848;4.652;2023-03-24T09:42:54;20.33;;;2.65;;
34836;SDS011;21053;50.848;4.652;2023-03-24T09:48:16;14.15;;;2.30;;
34836;SDS011;21053;50.848;4.652;2023-03-24T09:56:38;11.90;;;2.15;;
34836;SDS011;21053;50.848;4.652;2023-03-24T09:59:23;17.35;;;2.25;;
34836;SDS011;21053;50.848;4.652;2023-03-24T10:01:59;13.07;;;2.42;;
34836;SDS011;21053;50.848;4.652;2023-03-24T10:04:25;16.20;;;2.28;;
34836;SDS011;21053;50.848;4.652;2023-03-24T10:09:52;15.18;;;2.50;;
34836;SDS011;21053;50.848;4.652;2023-03-24T10:12:37;16.42;;;2.28;;
34836;SDS011;21053;50.848;4.652;2023-03-24T10:15:13;18.27;;;2.38;;
34836;SDS011;21053;50.848;4.652;2023-03-24T10:18:00;20.95;;;2.63;;
34836;SDS011;21053;50.848;4.652;2023-03-24T10:26:40;13.88;;;2.55;;
34836;SDS011;21053;50.848;4.652;2023-03-24T10:29:34;16.67;;;2.55;;
34836;SDS011;21053;50.848;4.652;2023-03-24T10:32:11;27.08;;;2.88;;
34836;SDS011;21053;50.848;4.652;2023-03-24T10:34:59;17.75;;;2.92;;
34836;SDS011;21053;50.848;4.652;2023-03-24T10:37:34;17.75;;;2.67;;
34836;SDS011;21053;50.848;4.652;2023-03-24T10:40:11;22.65;;;2.95;;
34836;SDS011;21053;50.848;4.652;2023-03-24T10:42:42;16.55;;;2.55;;
34836;SDS011;21053;50.848;4.652;2023-03-24T10:45:11;16.40;;;2.75;;
34836;SDS011;21053;50.848;4.652;2023-03-24T10:47:43;13.43;;;2.13;;
34836;SDS011;21053;50.848;4.652;2023-03-24T10:50:11;19.05;;;2.75;;
34836;SDS011;21053;50.848;4.652;2023-03-24T10:52:41;13.27;;;2.35;;
34836;SDS011;21053;50.848;4.652;2023-03-24T10:55:15;16.20;;;2.95;;
34836;SDS011;21053;50.848;4.652;2023-03-24T10:57:47;13.80;;;2.20;;
34836;SDS011;21053;50.848;4.652;2023-03-24T11:02:53;10.85;;;2.38;;
34836;SDS011;21053;50.848;4.652;2023-03-24T11:05:31;11.95;;;2.85;;
34836;SDS011;21053;50.848;4.652;2023-03-24T11:10:55;11.15;;;2.28;;
34836;SDS011;21053;50.848;4.652;2023-03-24T11:21:34;12.15;;;2.35;;
34836;SDS011;21053;50.848;4.652;2023-03-24T11:24:11;10.90;;;2.00;;
34836;SDS011;21053;50.848;4.652;2023-03-24T11:26:53;11.48;;;2.10;;
34836;SDS011;21053;50.848;4.652;2023-03-24T11:29:25;9.38;;;2.25;;
34836;SDS011;21053;50.848;4.652;2023-03-24T11:31:58;10.85;;;2.20;;
34836;SDS011;21053;50.848;4.652;2023-03-24T11:34:30;13.07;;;2.00;;
34836;SDS011;21053;50.848;4.652;2023-03-24T11:37:13;14.70;;;2.42;;
34836;SDS011;21053;50.848;4.652;2023-03-24T11:39:40;14.82;;;2.38;;
34836;SDS011;21053;50.848;4.652;2023-03-24T11:42:13;14.60;;;2.30;;
34836;SDS011;21053;50.848;4.652;2023-03-24T11:44:51;9.57;;;2.50;;
34836;SDS011;21053;50.848;4.652;2023-03-24T11:47:25;11.25;;;2.08;;
34836;SDS011;21053;50.848;4.652;2023-03-24T11:52:39;12.20;;;2.80;;
34836;SDS011;21053;50.848;4.652;2023-03-24T11:55:28;14.13;;;3.03;;
34836;SDS011;21053;50.848;4.652;2023-03-24T11:58:05;9.05;;;2.70;;
34836;SDS011;21053;50.848;4.652;2023-03-24T12:00:42;10.85;;;2.65;;
34836;SDS011;21053;50.848;4.652;2023-03-24T12:06:17;8.20;;;2.30;;
34836;SDS011;21053;50.848;4.652;2023-03-24T12:09:26;10.88;;;2.53;;
34836;SDS011;21053;50.848;4.652;2023-03-24T12:14:52;11.68;;;2.30;;
34836;SDS011;21053;50.848;4.652;2023-03-24T12:25:58;14.15;;;2.40;;
34836;SDS011;21053;50.848;4.652;2023-03-24T12:37:47;8.05;;;2.15;;
34836;SDS011;21053;50.848;4.652;2023-03-24T12:48:36;16.67;;;2.67;;
34836;SDS011;21053;50.848;4.652;2023-03-24T12:54:54;15.77;;;2.10;;
34836;SDS011;21053;50.848;4.652;2023-03-24T12:57:33;9.43;;;2.35;;
34836;SDS011;21053;50.848;4.652;2023-03-24T13:00:27;9.43;;;2.70;;
34836;SDS011;21053;50.848;4.652;2023-03-24T13:03:19;8.63;;;2.15;;
34836;SDS011;21053;50.848;4.652;2023-03-24T13:05:52;10.43;;;2.85;;
34836;SDS011;21053;50.848;4.652;2023-03-24T13:08:23;19.73;;;3.20;;
34836;SDS011;21053;50.848;4.652;2023-03-24T13:11:02;24.40;;;3.55;;
34836;SDS011;21053;50.848;4.652;2023-03-24T13:13:32;17.98;;;3.38;;
34836;SDS011;21053;50.848;4.652;2023-03-24T13:16:10;16.60;;;2.95;;
34836;SDS011;21053;50.848;4.652;2023-03-24T13:18:42;12.70;;;3.00;;
34836;SDS011;21053;50.848;4.652;2023-03-24T13:24:04;10.90;;;1.90;;
34836;SDS011;21053;50.848;4.652;2023-03-24T13:26:51;17.83;;;2.50;;
34836;SDS011;21053;50.848;4.652;2023-03-24T13:34:47;10.40;;;2.20;;
34836;SDS011;21053;50.848;4.652;2023-03-24T13:37:24;6.50;;;1.50;;
34836;SDS011;21053;50.848;4.652;2023-03-24T13:40:08;10.13;;;1.38;;
34836;SDS011;21053;50.848;4.652;2023-03-24T13:42:46;8.27;;;1.50;;
34836;SDS011;21053;50.848;4.652;2023-03-24T13:45:22;11.05;;;2.03;;
34836;SDS011;21053;50.848;4.652;2023-03-24T13:50:50;10.75;;;1.45;;
34836;SDS011;21053;50.848;4.652;2023-03-24T13:53:45;3.33;;;1.10;;
34836;SDS011;21053;50.848;4.652;2023-03-24T13:56:29;8.18;;;1.20;;
34836;SDS011;21053;50.848;4.652;2023-03-24T14:10:36;6.45;;;1.38;;
34836;SDS011;21053;50.848;4.652;2023-03-24T14:20:58;3.88;;;1.35;;
34836;SDS011;21053;50.848;4.652;2023-03-24T14:26:14;5.88;;;1.42;;
34836;SDS011;21053;50.848;4.652;2023-03-24T14:28:58;9.07;;;1.90;;
34836;SDS011;21053;50.848;4.652;2023-03-24T14:31:28;8.98;;;1.55;;
34836;SDS011;21053;50.848;4.652;2023-03-24T14:36:35;9.75;;;1.90;;
34836;SDS011;21053;50.848;4.652;2023-03-24T14:39:10;7.95;;;1.60;;
34836;SDS011;21053;50.848;4.652;2023-03-24T14:47:29;8.27;;;1.90;;
34836;SDS011;21053;50.848;4.652;2023-03-24T14:50:17;6.40;;;1.52;;
34836;SDS011;21053;50.848;4.652;2023-03-24T14:52:58;9.93;;;1.77;;
34836;SDS011;21053;50.848;4.652;2023-03-24T14:55:29;8.85;;;1.38;;
34836;SDS011;21053;50.848;4.652;2023-03-24T15:01:01;3.78;;;1.50;;
34836;SDS011;21053;50.848;4.652;2023-03-24T15:06:17;6.03;;;1.42;;
34836;SDS011;21053;50.848;4.652;2023-03-24T15:08:59;4.05;;;1.15;;
34836;SDS011;21053;50.848;4.652;2023-03-24T15:14:02;7.93;;;1.05;;
34836;SDS011;21053;50.848;4.652;2023-03-24T15:16:33;4.90;;;1.10;;
34836;SDS011;21053;50.848;4.652;2023-03-24T15:22:10;5.32;;;1.23;;
34836;SDS011;21053;50.848;4.652;2023-03-24T15:24:40;3.60;;;1.10;;
34836;SDS011;21053;50.848;4.652;2023-03-24T15:27:18;5.55;;;1.20;;
34836;SDS011;21053;50.848;4.652;2023-03-24T15:29:52;7.97;;;1.23;;
34836;SDS011;21053;50.848;4.652;2023-03-24T15:32:24;6.47;;;1.73;;
34836;SDS011;21053;50.848;4.652;2023-03-24T15:34:56;6.32;;;1.25;;
34836;SDS011;21053;50.848;4.652;2023-03-24T15:37:40;4.72;;;1.05;;
34836;SDS011;21053;50.848;4.652;2023-03-24T15:42:53;5.65;;;1.10;;
34836;SDS011;21053;50.848;4.652;2023-03-24T15:45:31;9.05;;;1.33;;
34836;SDS011;21053;50.848;4.652;2023-03-24T15:48:18;6.15;;;1.40;;
34836;SDS011;21053;50.848;4.652;2023-03-24T15:51:00;8.23;;;1.38;;
34836;SDS011;21053;50.848;4.652;2023-03-24T15:56:29;7.82;;;1.60;;
34836;SDS011;21053;50.848;4.652;2023-03-24T15:59:07;8.35;;;1.73;;
34836;SDS011;21053;50.848;4.652;2023-03-24T16:01:39;8.73;;;1.65;;
34836;SDS011;21053;50.848;4.652;2023-03-24T16:06:54;9.63;;;1.50;;
34836;SDS011;21053;50.848;4.652;2023-03-24T16:09:23;4.85;;;1.70;;
34836;SDS011;21053;50.848;4.652;2023-03-24T16:12:08;6.28;;;2.00;;
34836;SDS011;21053;50.848;4.652;2023-03-24T16:14:36;12.82;;;2.72;;
34836;SDS011;21053;50.848;4.652;2023-03-24T16:17:03;13.00;;;3.03;;
34836;SDS011;21053;50.848;4.652;2023-03-24T16:19:29;8.43;;;3.00;;
34836;SDS011;21053;50.848;4.652;2023-03-24T16:22:04;13.38;;;3.55;;
34836;SDS011;21053;50.848;4.652;2023-03-24T16:24:38;10.70;;;3.30;;
34836;SDS011;21053;50.848;4.652;2023-03-24T16:27:07;10.88;;;3.63;;
34836;SDS011;21053;50.848;4.652;2023-03-24T16:29:37;15.38;;;3.97;;
34836;SDS011;21053;50.848;4.652;2023-03-24T16:32:07;16.77;;;3.83;;
34836;SDS011;21053;50.848;4.652;2023-03-24T16:34:34;15.90;;;4.30;;
34836;SDS011;21053;50.848;4.652;2023-03-24T16:37:03;11.93;;;3.80;;
34836;SDS011;21053;50.848;4.652;2023-03-24T16:42:00;13.60;;;3.30;;
34836;SDS011;21053;50.848;4.652;2023-03-24T16:44:25;10.27;;;2.90;;
34836;SDS011;21053;50.848;4.652;2023-03-24T16:46:51;14.18;;;2.63;;
34836;SDS011;21053;50.848;4.652;2023-03-24T16:51:51;13.70;;;2.72;;
34836;SDS011;21053;50.848;4.652;2023-03-24T16:54:23;11.75;;;2.00;;
34836;SDS011;21053;50.848;4.652;2023-03-24T16:56:50;8.35;;;2.10;;
34836;SDS011;21053;50.848;4.652;2023-03-24T16:59:17;10.10;;;1.85;;
34836;SDS011;21053;50.848;4.652;2023-03-24T17:01:44;12.02;;;2.17;;
34836;SDS011;21053;50.848;4.652;2023-03-24T17:04:12;6.47;;;2.05;;
34836;SDS011;21053;50.848;4.652;2023-03-24T17:06:48;10.77;;;2.40;;
34836;SDS011;21053;50.848;4.652;2023-03-24T17:09:19;12.60;;;2.35;;
34836;SDS011;21053;50.848;4.652;2023-03-24T17:14:19;12.05;;;3.00;;
34836;SDS011;21053;50.848;4.652;2023-03-24T17:16:45;11.70;;;3.13;;
34836;SDS011;21053;50.848;4.652;2023-03-24T17:19:17;9.73;;;2.80;;
34836;SDS011;21053;50.848;4.652;2023-03-24T17:22:00;11.52;;;3.25;;
34836;SDS011;21053;50.848;4.652;2023-03-24T17:24:28;8.35;;;2.70;;
34836;SDS011;21053;50.848;4.652;2023-03-24T17:27:03;5.68;;;1.65;;
34836;SDS011;21053;50.848;4.652;2023-03-24T17:29:34;8.80;;;1.58;;
34836;SDS011;21053;50.848;4.652;2023-03-24T17:34:29;7.20;;;1.38;;
34836;SDS011;21053;50.848;4.652;2023-03-24T17:37:02;5.43;;;1.00;;
34836;SDS011;21053;50.848;4.652;2023-03-24T17:39:32;2.83;;;0.95;;
34836;SDS011;21053;50.848;4.652;2023-03-24T17:44:29;1.73;;;0.82;;
34836;SDS011;21053;50.848;4.652;2023-03-24T17:46:57;2.90;;;0.90;;
34836;SDS011;21053;50.848;4.652;2023-03-24T17:49:25;4.88;;;1.00;;
34836;SDS011;21053;50.848;4.652;2023-03-24T17:54:19;3.42;;;0.93;;
34836;SDS011;21053;50.848;4.652;2023-03-24T17:56:48;1.10;;;0.80;;
34836;SDS011;21053;50.848;4.652;2023-03-24T17:59:13;0.73;;;0.70;;
34836;SDS011;21053;50.848;4.652;2023-03-24T18:01:39;1.00;;;1.00;;
34836;SDS011;21053;50.848;4.652;2023-03-24T18:04:06;4.28;;;0.98;;
34836;SDS011;21053;50.848;4.652;2023-03-24T18:06:33;4.07;;;0.95;;
34836;SDS011;21053;50.848;4.652;2023-03-24T18:11:29;2.83;;;1.00;;
34836;SDS011;21053;50.848;4.652;2023-03-24T18:13:57;2.67;;;1.10;;
34836;SDS011;21053;50.848;4.652;2023-03-24T18:16:24;2.22;;;1.20;;
34836;SDS011;21053;50.848;4.652;2023-03-24T18:21:26;2.30;;;1.00;;
34836;SDS011;21053;50.848;4.652;2023-03-24T18:23:53;4.18;;;1.38;;
34836;SDS011;21053;50.848;4.652;2023-03-24T18:26:23;3.15;;;1.27;;
34836;SDS011;21053;50.848;4.652;2023-03-24T18:31:19;4.70;;;1.50;;
34836;SDS011;21053;50.848;4.652;2023-03-24T18:36:15;6.88;;;2.05;;
34836;SDS011;21053;50.848;4.652;2023-03-24T18:38:53;7.68;;;1.48;;
34836;SDS011;21053;50.848;4.652;2023-03-24T18:43:56;8.20;;;1.88;;
34836;SDS011;21053;50.848;4.652;2023-03-24T18:46:25;12.38;;;1.70;;
34836;SDS011;21053;50.848;4.652;2023-03-24T18:51:22;8.25;;;1.90;;
34836;SDS011;21053;50.848;4.652;2023-03-24T18:53:52;3.33;;;1.70;;
34836;SDS011;21053;50.848;4.652;2023-03-24T18:56:21;3.85;;;1.50;;
34836;SDS011;21053;50.848;4.652;2023-03-24T18:58:47;6.15;;;1.70;;
34836;SDS011;21053;50.848;4.652;2023-03-24T19:01:17;7.07;;;1.80;;
34836;SDS011;21053;50.848;4.652;2023-03-24T19:03:48;3.72;;;1.45;;
34836;SDS011;21053;50.848;4.652;2023-03-24T19:06:16;11.60;;;2.28;;
34836;SDS011;21053;50.848;4.652;2023-03-24T19:08:44;8.27;;;1.95;;
34836;SDS011;21053;50.848;4.652;2023-03-24T19:11:15;6.20;;;1.80;;
34836;SDS011;21053;50.848;4.652;2023-03-24T19:13:41;4.03;;;1.50;;
34836;SDS011;21053;50.848;4.652;2023-03-24T19:16:10;3.53;;;1.67;;
34836;SDS011;21053;50.848;4.652;2023-03-24T19:18:37;6.03;;;1.40;;
34836;SDS011;21053;50.848;4.652;2023-03-24T19:21:03;1.65;;;1.15;;
34836;SDS011;21053;50.848;4.652;2023-03-24T19:23:36;5.57;;;1.60;;
34836;SDS011;21053;50.848;4.652;2023-03-24T19:26:04;5.75;;;1.55;;
34836;SDS011;21053;50.848;4.652;2023-03-24T19:28:30;4.28;;;1.40;;
34836;SDS011;21053;50.848;4.652;2023-03-24T19:33:29;4.03;;;1.40;;
34836;SDS011;21053;50.848;4.652;2023-03-24T19:35:58;3.97;;;1.20;;
34836;SDS011;21053;50.848;4.652;2023-03-24T19:40:53;3.75;;;1.38;;
34836;SDS011;21053;50.848;4.652;2023-03-24T19:43:21;2.35;;;1.35;;
34836;SDS011;21053;50.848;4.652;2023-03-24T19:48:19;1.25;;;0.93;;
34836;SDS011;21053;50.848;4.652;2023-03-24T19:50:48;3.40;;;1.10;;
34836;SDS011;21053;50.848;4.652;2023-03-24T19:53:18;1.67;;;1.08;;
34836;SDS011;21053;50.848;4.652;2023-03-24T19:55:47;3.42;;;1.27;;
34836;SDS011;21053;50.848;4.652;2023-03-24T19:58:17;5.47;;;1.40;;
34836;SDS011;21053;50.848;4.652;2023-03-24T20:00:44;2.95;;;1.40;;
34836;SDS011;21053;50.848;4.652;2023-03-24T20:03:13;5.97;;;1.30;;
34836;SDS011;21053;50.848;4.652;2023-03-24T20:05:40;6.43;;;1.20;;
34836;SDS011;21053;50.848;4.652;2023-03-24T20:08:06;3.85;;;1.45;;
34836;SDS011;21053;50.848;4.652;2023-03-24T20:10:33;7.50;;;1.45;;